Station Historical Data
Daily Summary for March 9, 2017 Units:  Both    English   Metric
« Previous Day
Next Day »
Daily Weekly Monthly Yearly Custom
  High: Low: Average:
Temperature: 39.2 °F /  4 °C 31.7 °F /  -0.2 °C 34.6 °F /  1.4 °C
Dew Point: 26.4 °F /  -3.1 °C 15.3 °F /  -9.3 °C 20.7 °F /  -6.3 °C
Humidity: 73% 43% 57%
Wind Speed: 17.0mph /  27.4km/h - 6.2mph /  10km/h
Wind Gust: 25.0mph /  40.2km/h - -
Wind- - West
Pressure: 30.13 in /  1020.2 hPa 29.90 in /  1012.4 hPa -
Precipitation: 0.00 in /  0 mm    
Historical Graphs
 
 
Tabular Data for March 9, 2017
Time Temperature Dew Point Pressure Wind Wind Speed Wind Gust Humidity Rainfall Rate (Hourly)
00:04 38.6 °F /  3.7 °C 25.9 °F /  -3.4 °C 29.90in /  1012.4hPa West 5.0mph /  8km/h 11.0mph /  17.7km/h 60% 0.00in /  0mm
00:09 38.5 °F /  3.6 °C 25.8 °F /  -3.4 °C 29.90in /  1012.4hPa West 5.0mph /  8km/h 11.0mph /  17.7km/h 60% 0.00in /  0mm
00:14 38.5 °F /  3.6 °C 25.4 °F /  -3.7 °C 29.90in /  1012.4hPa West 5.0mph /  8km/h 12.0mph /  19.3km/h 59% 0.00in /  0mm
00:19 38.6 °F /  3.7 °C 24.7 °F /  -4.1 °C 29.91in /  1012.8hPa West 6.0mph /  9.7km/h 12.0mph /  19.3km/h 57% 0.00in /  0mm
00:24 38.9 °F /  3.8 °C 24.5 °F /  -4.2 °C 29.91in /  1012.8hPa West 3.0mph /  4.8km/h 20.0mph /  32.2km/h 56% 0.00in /  0mm
00:29 39.0 °F /  3.9 °C 23.7 °F /  -4.6 °C 29.91in /  1012.8hPa SW 4.0mph /  6.4km/h 18.0mph /  29km/h 54% 0.00in /  0mm
00:34 39.1 °F /  3.9 °C 25.1 °F /  -3.8 °C 29.91in /  1012.8hPa West 2.0mph /  3.2km/h 15.0mph /  24.1km/h 57% 0.00in /  0mm
00:39 39.0 °F /  3.9 °C 24.2 °F /  -4.3 °C 29.91in /  1012.8hPa WSW 7.0mph /  11.3km/h 18.0mph /  29km/h 55% 0.00in /  0mm
00:44 39.2 °F /  4 °C 23.9 °F /  -4.5 °C 29.92in /  1013.1hPa West 7.0mph /  11.3km/h 18.0mph /  29km/h 54% 0.00in /  0mm
00:49 39.0 °F /  3.9 °C 23.7 °F /  -4.6 °C 29.92in /  1013.1hPa West 7.0mph /  11.3km/h 18.0mph /  29km/h 54% 0.00in /  0mm
00:54 38.9 °F /  3.8 °C 22.3 °F /  -5.4 °C 29.92in /  1013.1hPa West 7.0mph /  11.3km/h 16.0mph /  25.7km/h 51% 0.00in /  0mm
00:59 39.0 °F /  3.9 °C 21.4 °F /  -5.9 °C 29.93in /  1013.4hPa SW 3.0mph /  4.8km/h 17.0mph /  27.4km/h 49% 0.00in /  0mm
01:04 38.9 °F /  3.8 °C 20.9 °F /  -6.2 °C 29.93in /  1013.4hPa West 7.0mph /  11.3km/h 14.0mph /  22.5km/h 48% 0.00in /  0mm
01:09 38.8 °F /  3.8 °C 20.8 °F /  -6.2 °C 29.93in /  1013.4hPa WNW 9.0mph /  14.5km/h 13.0mph /  20.9km/h 48% 0.00in /  0mm
01:14 38.6 °F /  3.7 °C 20.6 °F /  -6.3 °C 29.94in /  1013.8hPa West 7.0mph /  11.3km/h 14.0mph /  22.5km/h 48% 0.00in /  0mm
01:19 38.7 °F /  3.7 °C 20.2 °F /  -6.6 °C 29.94in /  1013.8hPa West 8.0mph /  12.9km/h 21.0mph /  33.8km/h 47% 0.00in /  0mm
01:24 38.8 °F /  3.8 °C 19.8 °F /  -6.8 °C 29.94in /  1013.8hPa West 9.0mph /  14.5km/h 21.0mph /  33.8km/h 46% 0.00in /  0mm
01:29 38.6 °F /  3.7 °C 19.6 °F /  -6.9 °C 29.94in /  1013.8hPa WNW 12.0mph /  19.3km/h 19.0mph /  30.6km/h 46% 0.00in /  0mm
01:34 38.4 °F /  3.6 °C 19.4 °F /  -7 °C 29.95in /  1014.1hPa NW 6.0mph /  9.7km/h 15.0mph /  24.1km/h 46% 0.00in /  0mm
01:39 38.2 °F /  3.4 °C 18.7 °F /  -7.4 °C 29.95in /  1014.1hPa West 8.0mph /  12.9km/h 22.0mph /  35.4km/h 45% 0.00in /  0mm
01:44 38.0 °F /  3.3 °C 18.5 °F /  -7.5 °C 29.96in /  1014.4hPa West 17.0mph /  27.4km/h 18.0mph /  29km/h 45% 0.00in /  0mm
01:49 37.9 °F /  3.3 °C 17.4 °F /  -8.1 °C 29.96in /  1014.4hPa West 9.0mph /  14.5km/h 20.0mph /  32.2km/h 43% 0.00in /  0mm
01:54 37.9 °F /  3.3 °C 17.4 °F /  -8.1 °C 29.96in /  1014.4hPa West 10.0mph /  16.1km/h 20.0mph /  32.2km/h 43% 0.00in /  0mm
01:59 37.7 °F /  3.2 °C 17.2 °F /  -8.2 °C 29.96in /  1014.4hPa West 11.0mph /  17.7km/h 24.0mph /  38.6km/h 43% 0.00in /  0mm
02:04 37.4 °F /  3 °C 17.4 °F /  -8.1 °C 29.96in /  1014.4hPa WNW 17.0mph /  27.4km/h 18.0mph /  29km/h 44% 0.00in /  0mm
02:09 37.2 °F /  2.9 °C 17.3 °F /  -8.2 °C 29.97in /  1014.8hPa West 4.0mph /  6.4km/h 20.0mph /  32.2km/h 44% 0.00in /  0mm
02:14 37.0 °F /  2.8 °C 17.1 °F /  -8.3 °C 29.97in /  1014.8hPa NW 10.0mph /  16.1km/h 18.0mph /  29km/h 44% 0.00in /  0mm
02:19 37.0 °F /  2.8 °C 17.1 °F /  -8.3 °C 29.97in /  1014.8hPa West 13.0mph /  20.9km/h 25.0mph /  40.2km/h 44% 0.00in /  0mm
02:24 36.9 °F /  2.7 °C 17.0 °F /  -8.3 °C 29.97in /  1014.8hPa West 12.0mph /  19.3km/h 25.0mph /  40.2km/h 44% 0.00in /  0mm
02:29 36.8 °F /  2.7 °C 17.4 °F /  -8.1 °C 29.97in /  1014.8hPa West 11.0mph /  17.7km/h 22.0mph /  35.4km/h 45% 0.00in /  0mm
02:34 36.6 °F /  2.6 °C 17.7 °F /  -7.9 °C 29.97in /  1014.8hPa West 11.0mph /  17.7km/h 22.0mph /  35.4km/h 46% 0.00in /  0mm
02:39 36.5 °F /  2.5 °C 17.7 °F /  -7.9 °C 29.97in /  1014.8hPa West 11.0mph /  17.7km/h 20.0mph /  32.2km/h 46% 0.00in /  0mm
02:44 36.4 °F /  2.4 °C 17.6 °F /  -8 °C 29.97in /  1014.8hPa West 10.0mph /  16.1km/h 24.0mph /  38.6km/h 46% 0.00in /  0mm
02:49 36.2 °F /  2.3 °C 17.9 °F /  -7.8 °C 29.97in /  1014.8hPa WNW 15.0mph /  24.1km/h 19.0mph /  30.6km/h 47% 0.00in /  0mm
02:54 36.1 °F /  2.3 °C 17.8 °F /  -7.9 °C 29.98in /  1015.1hPa WNW 4.0mph /  6.4km/h 19.0mph /  30.6km/h 47% 0.00in /  0mm
02:59 36.0 °F /  2.2 °C 18.2 °F /  -7.7 °C 29.97in /  1014.8hPa West 9.0mph /  14.5km/h 19.0mph /  30.6km/h 48% 0.00in /  0mm
03:04 35.9 °F /  2.2 °C 18.1 °F /  -7.7 °C 29.98in /  1015.1hPa West 4.0mph /  6.4km/h 15.0mph /  24.1km/h 48% 0.00in /  0mm
03:09 35.7 °F /  2.1 °C 17.9 °F /  -7.8 °C 29.98in /  1015.1hPa West 7.0mph /  11.3km/h 17.0mph /  27.4km/h 48% 0.00in /  0mm
03:14 35.5 °F /  1.9 °C 17.7 °F /  -7.9 °C 29.98in /  1015.1hPa West 5.0mph /  8km/h 14.0mph /  22.5km/h 48% 0.00in /  0mm
03:19 35.3 °F /  1.8 °C 18.5 °F /  -7.5 °C 29.98in /  1015.1hPa NW 6.0mph /  9.7km/h 12.0mph /  19.3km/h 50% 0.00in /  0mm
03:24 35.2 °F /  1.8 °C 18.9 °F /  -7.3 °C 29.99in /  1015.5hPa West 11.0mph /  17.7km/h 19.0mph /  30.6km/h 51% 0.00in /  0mm
03:29 35.2 °F /  1.8 °C 18.9 °F /  -7.3 °C 29.99in /  1015.5hPa NW 8.0mph /  12.9km/h 23.0mph /  37km/h 51% 0.00in /  0mm
03:34 35.0 °F /  1.7 °C 18.7 °F /  -7.4 °C 29.99in /  1015.5hPa West 9.0mph /  14.5km/h 23.0mph /  37km/h 51% 0.00in /  0mm
03:39 34.9 °F /  1.6 °C 18.1 °F /  -7.7 °C 29.99in /  1015.5hPa West 8.0mph /  12.9km/h 21.0mph /  33.8km/h 50% 0.00in /  0mm
03:44 34.9 °F /  1.6 °C 18.6 °F /  -7.4 °C 29.99in /  1015.5hPa West 8.0mph /  12.9km/h 19.0mph /  30.6km/h 51% 0.00in /  0mm
03:49 34.6 °F /  1.4 °C 18.3 °F /  -7.6 °C 29.99in /  1015.5hPa West 7.0mph /  11.3km/h 13.0mph /  20.9km/h 51% 0.00in /  0mm
03:54 34.4 °F /  1.3 °C 18.1 °F /  -7.7 °C 29.99in /  1015.5hPa West 7.0mph /  11.3km/h 14.0mph /  22.5km/h 51% 0.00in /  0mm
03:59 34.3 °F /  1.3 °C 18.0 °F /  -7.8 °C 30.00in /  1015.8hPa West 11.0mph /  17.7km/h 18.0mph /  29km/h 51% 0.00in /  0mm
04:04 34.4 °F /  1.3 °C 17.2 °F /  -8.2 °C 30.00in /  1015.8hPa West 10.0mph /  16.1km/h 20.0mph /  32.2km/h 49% 0.00in /  0mm
04:09 34.2 °F /  1.2 °C 17.5 °F /  -8.1 °C 30.00in /  1015.8hPa WSW 6.0mph /  9.7km/h 15.0mph /  24.1km/h 50% 0.00in /  0mm
04:14 34.0 °F /  1.1 °C 17.3 °F /  -8.2 °C 30.01in /  1016.1hPa West 7.0mph /  11.3km/h 17.0mph /  27.4km/h 50% 0.00in /  0mm
04:19 33.8 °F /  1 °C 17.1 °F /  -8.3 °C 30.01in /  1016.1hPa West 6.0mph /  9.7km/h 14.0mph /  22.5km/h 50% 0.00in /  0mm
04:24 33.8 °F /  1 °C 16.6 °F /  -8.6 °C 30.01in /  1016.1hPa West 16.0mph /  25.7km/h 21.0mph /  33.8km/h 49% 0.00in /  0mm
04:29 33.9 °F /  1.1 °C 16.7 °F /  -8.5 °C 30.01in /  1016.1hPa West 10.0mph /  16.1km/h 21.0mph /  33.8km/h 49% 0.00in /  0mm
04:34 33.6 °F /  0.9 °C 16.9 °F /  -8.4 °C 30.01in /  1016.1hPa West 8.0mph /  12.9km/h 17.0mph /  27.4km/h 50% 0.00in /  0mm
04:39 33.4 °F /  0.8 °C 16.7 °F /  -8.5 °C 30.02in /  1016.5hPa West 8.0mph /  12.9km/h 17.0mph /  27.4km/h 50% 0.00in /  0mm
04:44 33.2 °F /  0.7 °C 16.5 °F /  -8.6 °C 30.02in /  1016.5hPa West 7.0mph /  11.3km/h 13.0mph /  20.9km/h 50% 0.00in /  0mm
04:49 33.0 °F /  0.6 °C 17.3 °F /  -8.2 °C 30.03in /  1016.8hPa West 6.0mph /  9.7km/h 13.0mph /  20.9km/h 52% 0.00in /  0mm
04:54 32.9 °F /  0.5 °C 16.7 °F /  -8.5 °C 30.03in /  1016.8hPa West 6.0mph /  9.7km/h 15.0mph /  24.1km/h 51% 0.00in /  0mm
04:59 33.0 °F /  0.6 °C 16.4 °F /  -8.7 °C 30.03in /  1016.8hPa West 7.0mph /  11.3km/h 17.0mph /  27.4km/h 50% 0.00in /  0mm
05:04 33.2 °F /  0.7 °C 16.5 °F /  -8.6 °C 30.03in /  1016.8hPa West 8.0mph /  12.9km/h 18.0mph /  29km/h 50% 0.00in /  0mm
05:09 32.9 °F /  0.5 °C 16.3 °F /  -8.7 °C 30.03in /  1016.8hPa West 8.0mph /  12.9km/h 17.0mph /  27.4km/h 50% 0.00in /  0mm
05:14 32.8 °F /  0.4 °C 16.2 °F /  -8.8 °C 30.02in /  1016.5hPa West 8.0mph /  12.9km/h 17.0mph /  27.4km/h 50% 0.00in /  0mm
05:19 32.6 °F /  0.3 °C 16.4 °F /  -8.7 °C 30.02in /  1016.5hPa West 7.0mph /  11.3km/h 15.0mph /  24.1km/h 51% 0.00in /  0mm
05:24 32.5 °F /  0.3 °C 16.4 °F /  -8.7 °C 30.02in /  1016.5hPa NW 6.0mph /  9.7km/h 14.0mph /  22.5km/h 51% 0.00in /  0mm
05:29 32.3 °F /  0.2 °C 16.6 °F /  -8.6 °C 30.03in /  1016.8hPa West 5.0mph /  8km/h 10.0mph /  16.1km/h 52% 0.00in /  0mm
05:34 32.3 °F /  0.2 °C 16.2 °F /  -8.8 °C 30.04in /  1017.2hPa West 4.0mph /  6.4km/h 13.0mph /  20.9km/h 51% 0.00in /  0mm
05:39 32.4 °F /  0.2 °C 16.3 °F /  -8.7 °C 30.04in /  1017.2hPa West 4.0mph /  6.4km/h 13.0mph /  20.9km/h 51% 0.00in /  0mm
05:44 32.3 °F /  0.2 °C 16.6 °F /  -8.6 °C 30.04in /  1017.2hPa West 6.0mph /  9.7km/h 13.0mph /  20.9km/h 52% 0.00in /  0mm
05:49 32.3 °F /  0.2 °C 16.6 °F /  -8.6 °C 30.04in /  1017.2hPa West 5.0mph /  8km/h 11.0mph /  17.7km/h 52% 0.00in /  0mm
05:54 32.1 °F /  0.1 °C 16.9 °F /  -8.4 °C 30.05in /  1017.5hPa West 5.0mph /  8km/h 15.0mph /  24.1km/h 53% 0.00in /  0mm
05:59 32.3 °F /  0.2 °C 17.1 °F /  -8.3 °C 30.05in /  1017.5hPa West 6.0mph /  9.7km/h 15.0mph /  24.1km/h 53% 0.00in /  0mm
06:04 32.5 °F /  0.3 °C 16.8 °F /  -8.4 °C 30.05in /  1017.5hPa West 6.0mph /  9.7km/h 12.0mph /  19.3km/h 52% 0.00in /  0mm
06:09 32.4 °F /  0.2 °C 17.2 °F /  -8.2 °C 30.05in /  1017.5hPa SW 5.0mph /  8km/h 10.0mph /  16.1km/h 53% 0.00in /  0mm
06:14 32.5 °F /  0.3 °C 17.2 °F /  -8.2 °C 30.06in /  1017.8hPa West 5.0mph /  8km/h 10.0mph /  16.1km/h 53% 0.00in /  0mm
06:19 32.6 °F /  0.3 °C 17.3 °F /  -8.2 °C 30.06in /  1017.8hPa WSW 5.0mph /  8km/h 10.0mph /  16.1km/h 53% 0.00in /  0mm
06:24 32.5 °F /  0.3 °C 17.7 °F /  -7.9 °C 30.06in /  1017.8hPa WSW 5.0mph /  8km/h 10.0mph /  16.1km/h 54% 0.00in /  0mm
06:29 32.6 °F /  0.3 °C 17.3 °F /  -8.2 °C 30.06in /  1017.8hPa WSW 4.0mph /  6.4km/h 11.0mph /  17.7km/h 53% 0.00in /  0mm
06:34 32.5 °F /  0.3 °C 17.2 °F /  -8.2 °C 30.06in /  1017.8hPa West 4.0mph /  6.4km/h 10.0mph /  16.1km/h 53% 0.00in /  0mm
06:39 32.6 °F /  0.3 °C 17.8 °F /  -7.9 °C 30.06in /  1017.8hPa West 3.0mph /  4.8km/h 12.0mph /  19.3km/h 54% 0.00in /  0mm
06:44 32.6 °F /  0.3 °C 17.8 °F /  -7.9 °C 30.07in /  1018.2hPa West 4.0mph /  6.4km/h 8.0mph /  12.9km/h 54% 0.00in /  0mm
06:49 32.7 °F /  0.4 °C 17.9 °F /  -7.8 °C 30.07in /  1018.2hPa West 3.0mph /  4.8km/h 10.0mph /  16.1km/h 54% 0.00in /  0mm
06:54 32.7 °F /  0.4 °C 17.4 °F /  -8.1 °C 30.07in /  1018.2hPa West 6.0mph /  9.7km/h 12.0mph /  19.3km/h 53% 0.00in /  0mm
06:59 32.8 °F /  0.4 °C 18.0 °F /  -7.8 °C 30.07in /  1018.2hPa WSW 6.0mph /  9.7km/h 12.0mph /  19.3km/h 54% 0.00in /  0mm
07:04 32.8 °F /  0.4 °C 18.0 °F /  -7.8 °C 30.08in /  1018.5hPa West 6.0mph /  9.7km/h 15.0mph /  24.1km/h 54% 0.00in /  0mm
07:09 32.8 °F /  0.4 °C 18.0 °F /  -7.8 °C 30.07in /  1018.2hPa West 7.0mph /  11.3km/h 15.0mph /  24.1km/h 54% 0.00in /  0mm
07:14 32.8 °F /  0.4 °C 18.0 °F /  -7.8 °C 30.07in /  1018.2hPa West 7.0mph /  11.3km/h 17.0mph /  27.4km/h 54% 0.00in /  0mm
07:19 32.8 °F /  0.4 °C 18.0 °F /  -7.8 °C 30.08in /  1018.5hPa West 8.0mph /  12.9km/h 15.0mph /  24.1km/h 54% 0.00in /  0mm
07:24 32.8 °F /  0.4 °C 18.4 °F /  -7.6 °C 30.08in /  1018.5hPa WSW 3.0mph /  4.8km/h 16.0mph /  25.7km/h 55% 0.00in /  0mm
07:29 32.8 °F /  0.4 °C 18.4 °F /  -7.6 °C 30.08in /  1018.5hPa West 7.0mph /  11.3km/h 16.0mph /  25.7km/h 55% 0.00in /  0mm
07:34 32.8 °F /  0.4 °C 18.4 °F /  -7.6 °C 30.09in /  1018.8hPa West 6.0mph /  9.7km/h 13.0mph /  20.9km/h 55% 0.00in /  0mm
07:39 32.8 °F /  0.4 °C 18.4 °F /  -7.6 °C 30.08in /  1018.5hPa West 7.0mph /  11.3km/h 15.0mph /  24.1km/h 55% 0.00in /  0mm
07:44 32.8 °F /  0.4 °C 18.4 °F /  -7.6 °C 30.08in /  1018.5hPa WNW 6.0mph /  9.7km/h 15.0mph /  24.1km/h 55% 0.00in /  0mm
07:49 32.8 °F /  0.4 °C 18.8 °F /  -7.3 °C 30.09in /  1018.8hPa West 8.0mph /  12.9km/h 15.0mph /  24.1km/h 56% 0.00in /  0mm
07:54 32.8 °F /  0.4 °C 18.4 °F /  -7.6 °C 30.09in /  1018.8hPa West 7.0mph /  11.3km/h 15.0mph /  24.1km/h 55% 0.00in /  0mm
07:59 32.9 °F /  0.5 °C 18.9 °F /  -7.3 °C 30.09in /  1018.8hPa WSW 5.0mph /  8km/h 13.0mph /  20.9km/h 56% 0.00in /  0mm
08:04 32.8 °F /  0.4 °C 18.8 °F /  -7.3 °C 30.09in /  1018.8hPa West 8.0mph /  12.9km/h 13.0mph /  20.9km/h 56% 0.00in /  0mm
08:09 32.8 °F /  0.4 °C 18.8 °F /  -7.3 °C 30.10in /  1019.2hPa West 7.0mph /  11.3km/h 13.0mph /  20.9km/h 56% 0.00in /  0mm
08:14 32.8 °F /  0.4 °C 18.8 °F /  -7.3 °C 30.10in /  1019.2hPa WSW 5.0mph /  8km/h 11.0mph /  17.7km/h 56% 0.00in /  0mm
08:19 32.8 °F /  0.4 °C 18.8 °F /  -7.3 °C 30.10in /  1019.2hPa WSW 7.0mph /  11.3km/h 16.0mph /  25.7km/h 56% 0.00in /  0mm
08:24 32.8 °F /  0.4 °C 18.8 °F /  -7.3 °C 30.10in /  1019.2hPa SW 5.0mph /  8km/h 16.0mph /  25.7km/h 56% 0.00in /  0mm
08:29 32.7 °F /  0.4 °C 17.4 °F /  -8.1 °C 30.10in /  1019.2hPa West 8.0mph /  12.9km/h 14.0mph /  22.5km/h 53% 0.00in /  0mm
08:34 32.7 °F /  0.4 °C 17.4 °F /  -8.1 °C 30.10in /  1019.2hPa NW 15.0mph /  24.1km/h 16.0mph /  25.7km/h 53% 0.00in /  0mm
08:39 32.6 °F /  0.3 °C 16.9 °F /  -8.4 °C 30.10in /  1019.2hPa West 9.0mph /  14.5km/h 17.0mph /  27.4km/h 52% 0.00in /  0mm
08:44 32.7 °F /  0.4 °C 17.0 °F /  -8.3 °C 30.10in /  1019.2hPa West 9.0mph /  14.5km/h 17.0mph /  27.4km/h 52% 0.00in /  0mm
08:49 33.0 °F /  0.6 °C 17.7 °F /  -7.9 °C 30.09in /  1018.8hPa West 7.0mph /  11.3km/h 17.0mph /  27.4km/h 53% 0.00in /  0mm
08:54 32.9 °F /  0.5 °C 17.6 °F /  -8 °C 30.09in /  1018.8hPa West 6.0mph /  9.7km/h 14.0mph /  22.5km/h 53% 0.00in /  0mm
08:59 32.8 °F /  0.4 °C 16.6 °F /  -8.6 °C 30.09in /  1018.8hPa WSW 8.0mph /  12.9km/h 14.0mph /  22.5km/h 51% 0.00in /  0mm
09:04 33.0 °F /  0.6 °C 16.8 °F /  -8.4 °C 30.11in /  1019.5hPa West 6.0mph /  9.7km/h 16.0mph /  25.7km/h 51% 0.00in /  0mm
09:09 33.1 °F /  0.6 °C 16.9 °F /  -8.4 °C 30.11in /  1019.5hPa West 7.0mph /  11.3km/h 16.0mph /  25.7km/h 51% 0.00in /  0mm
09:14 33.1 °F /  0.6 °C 16.9 °F /  -8.4 °C 30.11in /  1019.5hPa West 7.0mph /  11.3km/h 14.0mph /  22.5km/h 51% 0.00in /  0mm
09:19 33.0 °F /  0.6 °C 15.9 °F /  -8.9 °C 30.11in /  1019.5hPa WNW 8.0mph /  12.9km/h 13.0mph /  20.9km/h 49% 0.00in /  0mm
09:24 33.1 °F /  0.6 °C 16.0 °F /  -8.9 °C 30.12in /  1019.9hPa West 11.0mph /  17.7km/h 16.0mph /  25.7km/h 49% 0.00in /  0mm
09:29 33.0 °F /  0.6 °C 16.4 °F /  -8.7 °C 30.12in /  1019.9hPa West 5.0mph /  8km/h 17.0mph /  27.4km/h 50% 0.00in /  0mm
09:34 33.0 °F /  0.6 °C 16.4 °F /  -8.7 °C 30.13in /  1020.2hPa West 8.0mph /  12.9km/h 18.0mph /  29km/h 50% 0.00in /  0mm
09:39 33.2 °F /  0.7 °C 16.1 °F /  -8.8 °C 30.12in /  1019.9hPa WSW 6.0mph /  9.7km/h 13.0mph /  20.9km/h 49% 0.00in /  0mm
09:44 33.0 °F /  0.6 °C 15.4 °F /  -9.2 °C 30.12in /  1019.9hPa West 7.0mph /  11.3km/h 14.0mph /  22.5km/h 48% 0.00in /  0mm
09:49 32.8 °F /  0.4 °C 16.2 °F /  -8.8 °C 30.12in /  1019.9hPa West 7.0mph /  11.3km/h 16.0mph /  25.7km/h 50% 0.00in /  0mm
09:54 32.8 °F /  0.4 °C 15.7 °F /  -9.1 °C 30.12in /  1019.9hPa West 8.0mph /  12.9km/h 16.0mph /  25.7km/h 49% 0.00in /  0mm
09:59 32.9 °F /  0.5 °C 15.8 °F /  -9 °C 30.12in /  1019.9hPa West 8.0mph /  12.9km/h 15.0mph /  24.1km/h 49% 0.00in /  0mm
10:04 32.9 °F /  0.5 °C 15.8 °F /  -9 °C 30.12in /  1019.9hPa West 7.0mph /  11.3km/h 14.0mph /  22.5km/h 49% 0.00in /  0mm
10:09 32.8 °F /  0.4 °C 16.2 °F /  -8.8 °C 30.12in /  1019.9hPa WSW 7.0mph /  11.3km/h 14.0mph /  22.5km/h 50% 0.00in /  0mm
10:14 32.8 °F /  0.4 °C 16.2 °F /  -8.8 °C 30.12in /  1019.9hPa West 7.0mph /  11.3km/h 14.0mph /  22.5km/h 50% 0.00in /  0mm
10:19 32.9 °F /  0.5 °C 15.8 °F /  -9 °C 30.12in /  1019.9hPa West 10.0mph /  16.1km/h 12.0mph /  19.3km/h 49% 0.00in /  0mm
10:24 32.9 °F /  0.5 °C 15.3 °F /  -9.3 °C 30.11in /  1019.5hPa WNW 3.0mph /  4.8km/h 17.0mph /  27.4km/h 48% 0.00in /  0mm
10:29 33.3 °F /  0.7 °C 15.7 °F /  -9.1 °C 30.11in /  1019.5hPa WNW 5.0mph /  8km/h 14.0mph /  22.5km/h 48% 0.00in /  0mm
10:34 33.4 °F /  0.8 °C 15.8 °F /  -9 °C 30.12in /  1019.9hPa WNW 9.0mph /  14.5km/h 11.0mph /  17.7km/h 48% 0.00in /  0mm
10:39 33.3 °F /  0.7 °C 16.2 °F /  -8.8 °C 30.11in /  1019.5hPa WSW 6.0mph /  9.7km/h 10.0mph /  16.1km/h 49% 0.00in /  0mm
10:44 33.6 °F /  0.9 °C 16.9 °F /  -8.4 °C 30.11in /  1019.5hPa West 2.0mph /  3.2km/h 9.0mph /  14.5km/h 50% 0.00in /  0mm
10:49 33.8 °F /  1 °C 17.6 °F /  -8 °C 30.12in /  1019.9hPa West 4.0mph /  6.4km/h 10.0mph /  16.1km/h 51% 0.00in /  0mm
10:54 33.7 °F /  0.9 °C 17.0 °F /  -8.3 °C 30.12in /  1019.9hPa West 5.0mph /  8km/h 10.0mph /  16.1km/h 50% 0.00in /  0mm
10:59 33.7 °F /  0.9 °C 17.0 °F /  -8.3 °C 30.12in /  1019.9hPa West 5.0mph /  8km/h 11.0mph /  17.7km/h 50% 0.00in /  0mm
11:04 34.0 °F /  1.1 °C 17.7 °F /  -7.9 °C 30.12in /  1019.9hPa West 6.0mph /  9.7km/h 12.0mph /  19.3km/h 51% 0.00in /  0mm
11:09 34.3 °F /  1.3 °C 17.1 °F /  -8.3 °C 30.12in /  1019.9hPa WSW 5.0mph /  8km/h 11.0mph /  17.7km/h 49% 0.00in /  0mm
11:14 34.4 °F /  1.3 °C 17.2 °F /  -8.2 °C 30.12in /  1019.9hPa SW 4.0mph /  6.4km/h 12.0mph /  19.3km/h 49% 0.00in /  0mm
11:19 34.7 °F /  1.5 °C 17.9 °F /  -7.8 °C 30.12in /  1019.9hPa WSW 5.0mph /  8km/h 12.0mph /  19.3km/h 50% 0.00in /  0mm
11:24 35.1 °F /  1.7 °C 18.8 °F /  -7.3 °C 30.12in /  1019.9hPa West 4.0mph /  6.4km/h 9.0mph /  14.5km/h 51% 0.00in /  0mm
11:29 35.1 °F /  1.7 °C 18.8 °F /  -7.3 °C 30.13in /  1020.2hPa South 8.0mph /  12.9km/h 13.0mph /  20.9km/h 51% 0.00in /  0mm
11:34 35.0 °F /  1.7 °C 18.2 °F /  -7.7 °C 30.13in /  1020.2hPa WSW 7.0mph /  11.3km/h 13.0mph /  20.9km/h 50% 0.00in /  0mm
11:39 35.2 °F /  1.8 °C 19.3 °F /  -7.1 °C 30.13in /  1020.2hPa WSW 4.0mph /  6.4km/h 8.0mph /  12.9km/h 52% 0.00in /  0mm
11:44 35.5 °F /  1.9 °C 19.1 °F /  -7.2 °C 30.12in /  1019.9hPa West 10.0mph /  16.1km/h 14.0mph /  22.5km/h 51% 0.00in /  0mm
11:49 35.9 °F /  2.2 °C 19.5 °F /  -6.9 °C 30.12in /  1019.9hPa West 6.0mph /  9.7km/h 14.0mph /  22.5km/h 51% 0.00in /  0mm
11:54 36.1 °F /  2.3 °C 19.7 °F /  -6.8 °C 30.12in /  1019.9hPa West 6.0mph /  9.7km/h 12.0mph /  19.3km/h 51% 0.00in /  0mm
11:59 36.2 °F /  2.3 °C 19.3 °F /  -7.1 °C 30.12in /  1019.9hPa West 6.0mph /  9.7km/h 12.0mph /  19.3km/h 50% 0.00in /  0mm
12:04 37.5 °F /  3.1 °C 20.1 °F /  -6.6 °C 30.11in /  1019.5hPa West 3.0mph /  4.8km/h 12.0mph /  19.3km/h 49% 0.00in /  0mm
12:09 36.9 °F /  2.7 °C 20.0 °F /  -6.7 °C 30.11in /  1019.5hPa West 6.0mph /  9.7km/h 13.0mph /  20.9km/h 50% 0.00in /  0mm
12:14 36.1 °F /  2.3 °C 19.2 °F /  -7.1 °C 30.11in /  1019.5hPa WSW 3.0mph /  4.8km/h 13.0mph /  20.9km/h 50% 0.00in /  0mm
12:19 35.8 °F /  2.1 °C 19.9 °F /  -6.7 °C 30.11in /  1019.5hPa WSW 7.0mph /  11.3km/h 13.0mph /  20.9km/h 52% 0.00in /  0mm
12:29 36.0 °F /  2.2 °C 20.9 °F /  -6.2 °C 30.11in /  1019.5hPa WSW 8.0mph /  12.9km/h 15.0mph /  24.1km/h 54% 0.00in /  0mm
12:34 36.2 °F /  2.3 °C 20.7 °F /  -6.3 °C 30.11in /  1019.5hPa SW 3.0mph /  4.8km/h 13.0mph /  20.9km/h 53% 0.00in /  0mm
12:39 36.6 °F /  2.6 °C 21.1 °F /  -6.1 °C 30.11in /  1019.5hPa SW 5.0mph /  8km/h 15.0mph /  24.1km/h 53% 0.00in /  0mm
12:44 36.2 °F /  2.3 °C 21.1 °F /  -6.1 °C 30.12in /  1019.9hPa SW 9.0mph /  14.5km/h 18.0mph /  29km/h 54% 0.00in /  0mm
12:49 36.3 °F /  2.4 °C 21.2 °F /  -6 °C 30.12in /  1019.9hPa West 11.0mph /  17.7km/h 15.0mph /  24.1km/h 54% 0.00in /  0mm
12:54 35.8 °F /  2.1 °C 20.8 °F /  -6.2 °C 30.11in /  1019.5hPa SW 9.0mph /  14.5km/h 16.0mph /  25.7km/h 54% 0.00in /  0mm
12:59 35.6 °F /  2 °C 20.6 °F /  -6.3 °C 30.11in /  1019.5hPa WSW 10.0mph /  16.1km/h 16.0mph /  25.7km/h 54% 0.00in /  0mm
13:04 36.2 °F /  2.3 °C 22.0 °F /  -5.6 °C 30.11in /  1019.5hPa WSW 8.0mph /  12.9km/h 16.0mph /  25.7km/h 56% 0.00in /  0mm
13:09 36.3 °F /  2.4 °C 21.7 °F /  -5.7 °C 30.11in /  1019.5hPa WSW 8.0mph /  12.9km/h 15.0mph /  24.1km/h 55% 0.00in /  0mm
13:14 36.3 °F /  2.4 °C 21.2 °F /  -6 °C 30.11in /  1019.5hPa SW 8.0mph /  12.9km/h 16.0mph /  25.7km/h 54% 0.00in /  0mm
13:19 36.1 °F /  2.3 °C 21.0 °F /  -6.1 °C 30.10in /  1019.2hPa WSW 4.0mph /  6.4km/h 20.0mph /  32.2km/h 54% 0.00in /  0mm
13:24 36.2 °F /  2.3 °C 21.6 °F /  -5.8 °C 30.10in /  1019.2hPa SW 15.0mph /  24.1km/h 17.0mph /  27.4km/h 55% 0.00in /  0mm
13:29 36.2 °F /  2.3 °C 21.6 °F /  -5.8 °C 30.10in /  1019.2hPa SW 10.0mph /  16.1km/h 17.0mph /  27.4km/h 55% 0.00in /  0mm
13:34 36.4 °F /  2.4 °C 22.2 °F /  -5.4 °C 30.10in /  1019.2hPa SW 9.0mph /  14.5km/h 16.0mph /  25.7km/h 56% 0.00in /  0mm
13:39 36.2 °F /  2.3 °C 21.6 °F /  -5.8 °C 30.10in /  1019.2hPa SW 9.0mph /  14.5km/h 16.0mph /  25.7km/h 55% 0.00in /  0mm
13:44 36.3 °F /  2.4 °C 21.7 °F /  -5.7 °C 30.09in /  1018.8hPa WNW 6.0mph /  9.7km/h 14.0mph /  22.5km/h 55% 0.00in /  0mm
13:49 36.2 °F /  2.3 °C 21.6 °F /  -5.8 °C 30.09in /  1018.8hPa WSW 3.0mph /  4.8km/h 17.0mph /  27.4km/h 55% 0.00in /  0mm
13:54 36.0 °F /  2.2 °C 20.9 °F /  -6.2 °C 30.09in /  1018.8hPa SW 10.0mph /  16.1km/h 18.0mph /  29km/h 54% 0.00in /  0mm
13:59 36.2 °F /  2.3 °C 22.0 °F /  -5.6 °C 30.09in /  1018.8hPa SW 10.0mph /  16.1km/h 18.0mph /  29km/h 56% 0.00in /  0mm
14:04 36.1 °F /  2.3 °C 21.5 °F /  -5.8 °C 30.09in /  1018.8hPa WSW 9.0mph /  14.5km/h 17.0mph /  27.4km/h 55% 0.00in /  0mm
14:09 37.0 °F /  2.8 °C 22.7 °F /  -5.2 °C 30.08in /  1018.5hPa WSW 8.0mph /  12.9km/h 16.0mph /  25.7km/h 56% 0.00in /  0mm
14:14 36.8 °F /  2.7 °C 22.1 °F /  -5.5 °C 30.08in /  1018.5hPa SW 6.0mph /  9.7km/h 12.0mph /  19.3km/h 55% 0.00in /  0mm
14:19 36.5 °F /  2.5 °C 21.0 °F /  -6.1 °C 30.09in /  1018.8hPa WSW 6.0mph /  9.7km/h 13.0mph /  20.9km/h 53% 0.00in /  0mm
14:24 36.5 °F /  2.5 °C 21.8 °F /  -5.7 °C 30.09in /  1018.8hPa WSW 9.0mph /  14.5km/h 18.0mph /  29km/h 55% 0.00in /  0mm
14:29 36.1 °F /  2.3 °C 21.9 °F /  -5.6 °C 30.08in /  1018.5hPa SW 10.0mph /  16.1km/h 18.0mph /  29km/h 56% 0.00in /  0mm
14:34 35.8 °F /  2.1 °C 21.6 °F /  -5.8 °C 30.09in /  1018.8hPa SW 9.0mph /  14.5km/h 18.0mph /  29km/h 56% 0.00in /  0mm
14:39 35.9 °F /  2.2 °C 22.1 °F /  -5.5 °C 30.09in /  1018.8hPa SW 9.0mph /  14.5km/h 16.0mph /  25.7km/h 57% 0.00in /  0mm
14:44 35.9 °F /  2.2 °C 21.3 °F /  -5.9 °C 30.09in /  1018.8hPa WSW 8.0mph /  12.9km/h 17.0mph /  27.4km/h 55% 0.00in /  0mm
14:49 35.7 °F /  2.1 °C 20.7 °F /  -6.3 °C 30.09in /  1018.8hPa SW 9.0mph /  14.5km/h 17.0mph /  27.4km/h 54% 0.00in /  0mm
14:54 35.5 °F /  1.9 °C 20.9 °F /  -6.2 °C 30.09in /  1018.8hPa SW 4.0mph /  6.4km/h 18.0mph /  29km/h 55% 0.00in /  0mm
14:59 35.6 °F /  2 °C 21.4 °F /  -5.9 °C 30.10in /  1019.2hPa West 7.0mph /  11.3km/h 15.0mph /  24.1km/h 56% 0.00in /  0mm
15:04 35.4 °F /  1.9 °C 22.1 °F /  -5.5 °C 30.09in /  1018.8hPa SSW 16.0mph /  25.7km/h 17.0mph /  27.4km/h 58% 0.00in /  0mm
15:09 35.5 °F /  1.9 °C 23.4 °F /  -4.8 °C 30.10in /  1019.2hPa SW 9.0mph /  14.5km/h 17.0mph /  27.4km/h 61% 0.00in /  0mm
15:14 35.5 °F /  1.9 °C 22.6 °F /  -5.2 °C 30.10in /  1019.2hPa SW 8.0mph /  12.9km/h 22.0mph /  35.4km/h 59% 0.00in /  0mm
15:19 35.5 °F /  1.9 °C 22.6 °F /  -5.2 °C 30.10in /  1019.2hPa SW 9.0mph /  14.5km/h 18.0mph /  29km/h 59% 0.00in /  0mm
15:24 35.5 °F /  1.9 °C 22.2 °F /  -5.4 °C 30.10in /  1019.2hPa WSW 9.0mph /  14.5km/h 18.0mph /  29km/h 58% 0.00in /  0mm
15:29 35.2 °F /  1.8 °C 22.3 °F /  -5.4 °C 30.10in /  1019.2hPa West 6.0mph /  9.7km/h 14.0mph /  22.5km/h 59% 0.00in /  0mm
15:34 35.2 °F /  1.8 °C 22.3 °F /  -5.4 °C 30.10in /  1019.2hPa SW 3.0mph /  4.8km/h 19.0mph /  30.6km/h 59% 0.00in /  0mm
15:39 35.6 °F /  2 °C 23.1 °F /  -4.9 °C 30.10in /  1019.2hPa SW 7.0mph /  11.3km/h 19.0mph /  30.6km/h 60% 0.00in /  0mm
15:44 35.3 °F /  1.8 °C 21.6 °F /  -5.8 °C 30.10in /  1019.2hPa SW 7.0mph /  11.3km/h 16.0mph /  25.7km/h 57% 0.00in /  0mm
15:49 35.3 °F /  1.8 °C 21.6 °F /  -5.8 °C 30.10in /  1019.2hPa SW 8.0mph /  12.9km/h 16.0mph /  25.7km/h 57% 0.00in /  0mm
15:54 35.3 °F /  1.8 °C 20.7 °F /  -6.3 °C 30.10in /  1019.2hPa WSW 8.0mph /  12.9km/h 16.0mph /  25.7km/h 55% 0.00in /  0mm
15:59 35.4 °F /  1.9 °C 20.8 °F /  -6.2 °C 30.10in /  1019.2hPa WNW 6.0mph /  9.7km/h 19.0mph /  30.6km/h 55% 0.00in /  0mm
16:04 35.4 °F /  1.9 °C 21.7 °F /  -5.7 °C 30.10in /  1019.2hPa WSW 4.0mph /  6.4km/h 16.0mph /  25.7km/h 57% 0.00in /  0mm
16:09 35.4 °F /  1.9 °C 22.1 °F /  -5.5 °C 30.09in /  1018.8hPa West 7.0mph /  11.3km/h 15.0mph /  24.1km/h 58% 0.00in /  0mm
16:14 35.3 °F /  1.8 °C 22.0 °F /  -5.6 °C 30.09in /  1018.8hPa WNW 10.0mph /  16.1km/h 14.0mph /  22.5km/h 58% 0.00in /  0mm
16:19 35.3 °F /  1.8 °C 22.8 °F /  -5.1 °C 30.09in /  1018.8hPa SW 11.0mph /  17.7km/h 15.0mph /  24.1km/h 60% 0.00in /  0mm
16:24 35.4 °F /  1.9 °C 23.3 °F /  -4.8 °C 30.09in /  1018.8hPa SW 8.0mph /  12.9km/h 13.0mph /  20.9km/h 61% 0.00in /  0mm
16:29 35.5 °F /  1.9 °C 22.2 °F /  -5.4 °C 30.09in /  1018.8hPa West 9.0mph /  14.5km/h 12.0mph /  19.3km/h 58% 0.00in /  0mm
16:34 35.4 °F /  1.9 °C 22.9 °F /  -5.1 °C 30.09in /  1018.8hPa WSW 4.0mph /  6.4km/h 15.0mph /  24.1km/h 60% 0.00in /  0mm
16:39 35.3 °F /  1.8 °C 24.0 °F /  -4.4 °C 30.09in /  1018.8hPa WSW 7.0mph /  11.3km/h 15.0mph /  24.1km/h 63% 0.00in /  0mm
16:44 35.2 °F /  1.8 °C 24.2 °F /  -4.3 °C 30.09in /  1018.8hPa SW 7.0mph /  11.3km/h 12.0mph /  19.3km/h 64% 0.00in /  0mm
16:49 35.2 °F /  1.8 °C 24.2 °F /  -4.3 °C 30.09in /  1018.8hPa SW 6.0mph /  9.7km/h 11.0mph /  17.7km/h 64% 0.00in /  0mm
16:54 35.1 °F /  1.7 °C 24.5 °F /  -4.2 °C 30.10in /  1019.2hPa SW 7.0mph /  11.3km/h 13.0mph /  20.9km/h 65% 0.00in /  0mm
16:59 35.0 °F /  1.7 °C 24.0 °F /  -4.4 °C 30.09in /  1018.8hPa WSW 7.0mph /  11.3km/h 14.0mph /  22.5km/h 64% 0.00in /  0mm
17:04 35.0 °F /  1.7 °C 24.4 °F /  -4.2 °C 30.09in /  1018.8hPa WSW 7.0mph /  11.3km/h 14.0mph /  22.5km/h 65% 0.00in /  0mm
17:09 34.9 °F /  1.6 °C 23.9 °F /  -4.5 °C 30.09in /  1018.8hPa WSW 11.0mph /  17.7km/h 14.0mph /  22.5km/h 64% 0.00in /  0mm
17:14 34.9 °F /  1.6 °C 23.9 °F /  -4.5 °C 30.09in /  1018.8hPa SW 8.0mph /  12.9km/h 14.0mph /  22.5km/h 64% 0.00in /  0mm
17:24 34.9 °F /  1.6 °C 23.9 °F /  -4.5 °C 30.09in /  1018.8hPa WSW 7.0mph /  11.3km/h 13.0mph /  20.9km/h 64% 0.00in /  0mm
17:29 35.0 °F /  1.7 °C 24.4 °F /  -4.2 °C 30.09in /  1018.8hPa WSW 6.0mph /  9.7km/h 12.0mph /  19.3km/h 65% 0.00in /  0mm
17:34 35.0 °F /  1.7 °C 24.4 °F /  -4.2 °C 30.09in /  1018.8hPa WSW 4.0mph /  6.4km/h 10.0mph /  16.1km/h 65% 0.00in /  0mm
17:39 34.9 °F /  1.6 °C 23.9 °F /  -4.5 °C 30.09in /  1018.8hPa WSW 7.0mph /  11.3km/h 12.0mph /  19.3km/h 64% 0.00in /  0mm
17:44 35.0 °F /  1.7 °C 24.0 °F /  -4.4 °C 30.09in /  1018.8hPa SW 5.0mph /  8km/h 11.0mph /  17.7km/h 64% 0.00in /  0mm
17:49 35.0 °F /  1.7 °C 24.4 °F /  -4.2 °C 30.09in /  1018.8hPa SW 6.0mph /  9.7km/h 12.0mph /  19.3km/h 65% 0.00in /  0mm
17:54 34.9 °F /  1.6 °C 24.3 °F /  -4.3 °C 30.09in /  1018.8hPa WSW 5.0mph /  8km/h 12.0mph /  19.3km/h 65% 0.00in /  0mm
17:59 34.9 °F /  1.6 °C 24.7 °F /  -4.1 °C 30.09in /  1018.8hPa WSW 5.0mph /  8km/h 12.0mph /  19.3km/h 66% 0.00in /  0mm
18:04 34.8 °F /  1.6 °C 24.6 °F /  -4.1 °C 30.09in /  1018.8hPa SW 3.0mph /  4.8km/h 14.0mph /  22.5km/h 66% 0.00in /  0mm
18:09 34.7 °F /  1.5 °C 24.9 °F /  -3.9 °C 30.10in /  1019.2hPa WSW 4.0mph /  6.4km/h 14.0mph /  22.5km/h 67% 0.00in /  0mm
18:14 34.6 °F /  1.4 °C 24.8 °F /  -4 °C 30.09in /  1018.8hPa SSW 7.0mph /  11.3km/h 9.0mph /  14.5km/h 67% 0.00in /  0mm
18:19 34.6 °F /  1.4 °C 24.8 °F /  -4 °C 30.09in /  1018.8hPa WSW 6.0mph /  9.7km/h 12.0mph /  19.3km/h 67% 0.00in /  0mm
18:24 34.6 °F /  1.4 °C 24.8 °F /  -4 °C 30.09in /  1018.8hPa WSW 6.0mph /  9.7km/h 13.0mph /  20.9km/h 67% 0.00in /  0mm
18:29 34.6 °F /  1.4 °C 25.1 °F /  -3.8 °C 30.09in /  1018.8hPa SW 7.0mph /  11.3km/h 15.0mph /  24.1km/h 68% 0.00in /  0mm
18:34 34.6 °F /  1.4 °C 25.1 °F /  -3.8 °C 30.09in /  1018.8hPa WSW 6.0mph /  9.7km/h 14.0mph /  22.5km/h 68% 0.00in /  0mm
18:39 34.6 °F /  1.4 °C 25.5 °F /  -3.6 °C 30.09in /  1018.8hPa WSW 5.0mph /  8km/h 12.0mph /  19.3km/h 69% 0.00in /  0mm
18:44 34.5 °F /  1.4 °C 25.4 °F /  -3.7 °C 30.09in /  1018.8hPa SW 9.0mph /  14.5km/h 10.0mph /  16.1km/h 69% 0.00in /  0mm
18:49 34.5 °F /  1.4 °C 25.4 °F /  -3.7 °C 30.10in /  1019.2hPa West 5.0mph /  8km/h 10.0mph /  16.1km/h 69% 0.00in /  0mm
18:54 34.5 °F /  1.4 °C 25.4 °F /  -3.7 °C 30.10in /  1019.2hPa WSW 6.0mph /  9.7km/h 12.0mph /  19.3km/h 69% 0.00in /  0mm
18:59 34.5 °F /  1.4 °C 25.7 °F /  -3.5 °C 30.10in /  1019.2hPa WSW 6.0mph /  9.7km/h 12.0mph /  19.3km/h 70% 0.00in /  0mm
19:04 34.4 °F /  1.3 °C 25.6 °F /  -3.6 °C 30.10in /  1019.2hPa WSW 5.0mph /  8km/h 11.0mph /  17.7km/h 70% 0.00in /  0mm
19:09 34.4 °F /  1.3 °C 25.6 °F /  -3.6 °C 30.10in /  1019.2hPa WSW 5.0mph /  8km/h 10.0mph /  16.1km/h 70% 0.00in /  0mm
19:14 34.4 °F /  1.3 °C 26.0 °F /  -3.3 °C 30.09in /  1018.8hPa SW 6.0mph /  9.7km/h 14.0mph /  22.5km/h 71% 0.00in /  0mm
19:19 34.3 °F /  1.3 °C 25.9 °F /  -3.4 °C 30.09in /  1018.8hPa WSW 4.0mph /  6.4km/h 12.0mph /  19.3km/h 71% 0.00in /  0mm
19:24 34.3 °F /  1.3 °C 25.9 °F /  -3.4 °C 30.10in /  1019.2hPa WSW 5.0mph /  8km/h 12.0mph /  19.3km/h 71% 0.00in /  0mm
19:29 34.2 °F /  1.2 °C 26.1 °F /  -3.3 °C 30.10in /  1019.2hPa WSW 5.0mph /  8km/h 10.0mph /  16.1km/h 72% 0.00in /  0mm
19:34 34.3 °F /  1.3 °C 26.2 °F /  -3.2 °C 30.10in /  1019.2hPa West 5.0mph /  8km/h 9.0mph /  14.5km/h 72% 0.00in /  0mm
19:39 34.3 °F /  1.3 °C 26.2 °F /  -3.2 °C 30.11in /  1019.5hPa WSW 5.0mph /  8km/h 10.0mph /  16.1km/h 72% 0.00in /  0mm
19:44 34.3 °F /  1.3 °C 26.2 °F /  -3.2 °C 30.11in /  1019.5hPa SW 5.0mph /  8km/h 10.0mph /  16.1km/h 72% 0.00in /  0mm
19:49 34.3 °F /  1.3 °C 26.2 °F /  -3.2 °C 30.11in /  1019.5hPa WSW 6.0mph /  9.7km/h 9.0mph /  14.5km/h 72% 0.00in /  0mm
19:54 34.3 °F /  1.3 °C 26.2 °F /  -3.2 °C 30.11in /  1019.5hPa WSW 4.0mph /  6.4km/h 10.0mph /  16.1km/h 72% 0.00in /  0mm
19:59 34.3 °F /  1.3 °C 26.2 °F /  -3.2 °C 30.11in /  1019.5hPa WSW 4.0mph /  6.4km/h 11.0mph /  17.7km/h 72% 0.00in /  0mm
20:04 34.3 °F /  1.3 °C 26.2 °F /  -3.2 °C 30.11in /  1019.5hPa WSW 5.0mph /  8km/h 11.0mph /  17.7km/h 72% 0.00in /  0mm
20:09 34.4 °F /  1.3 °C 26.3 °F /  -3.2 °C 30.11in /  1019.5hPa WSW 5.0mph /  8km/h 9.0mph /  14.5km/h 72% 0.00in /  0mm
20:14 34.3 °F /  1.3 °C 26.2 °F /  -3.2 °C 30.12in /  1019.9hPa WSW 4.0mph /  6.4km/h 9.0mph /  14.5km/h 72% 0.00in /  0mm
20:19 34.2 °F /  1.2 °C 26.4 °F /  -3.1 °C 30.11in /  1019.5hPa WSW 4.0mph /  6.4km/h 8.0mph /  12.9km/h 73% 0.00in /  0mm
20:24 34.2 °F /  1.2 °C 26.1 °F /  -3.3 °C 30.11in /  1019.5hPa WSW 4.0mph /  6.4km/h 7.0mph /  11.3km/h 72% 0.00in /  0mm
20:29 34.2 °F /  1.2 °C 26.1 °F /  -3.3 °C 30.11in /  1019.5hPa WSW 3.0mph /  4.8km/h 7.0mph /  11.3km/h 72% 0.00in /  0mm
20:34 34.3 °F /  1.3 °C 26.2 °F /  -3.2 °C 30.11in /  1019.5hPa West 5.0mph /  8km/h 9.0mph /  14.5km/h 72% 0.00in /  0mm
20:39 34.2 °F /  1.2 °C 26.1 °F /  -3.3 °C 30.11in /  1019.5hPa West 2.0mph /  3.2km/h 7.0mph /  11.3km/h 72% 0.00in /  0mm
20:44 34.3 °F /  1.3 °C 26.2 °F /  -3.2 °C 30.10in /  1019.2hPa WSW 1.0mph /  1.6km/h 6.0mph /  9.7km/h 72% 0.00in /  0mm
20:49 34.1 °F /  1.2 °C 26.0 °F /  -3.3 °C 30.10in /  1019.2hPa West 5.0mph /  8km/h 7.0mph /  11.3km/h 72% 0.00in /  0mm
20:54 34.1 °F /  1.2 °C 26.0 °F /  -3.3 °C 30.11in /  1019.5hPa WSW 4.0mph /  6.4km/h 8.0mph /  12.9km/h 72% 0.00in /  0mm
20:59 34.1 °F /  1.2 °C 26.0 °F /  -3.3 °C 30.10in /  1019.2hPa West 4.0mph /  6.4km/h 8.0mph /  12.9km/h 72% 0.00in /  0mm
21:04 34.1 °F /  1.2 °C 26.3 °F /  -3.2 °C 30.10in /  1019.2hPa West 3.0mph /  4.8km/h 6.0mph /  9.7km/h 73% 0.00in /  0mm
21:09 34.0 °F /  1.1 °C 26.3 °F /  -3.2 °C 30.10in /  1019.2hPa West 3.0mph /  4.8km/h 5.0mph /  8km/h 73% 0.00in /  0mm
21:14 33.9 °F /  1.1 °C 26.2 °F /  -3.2 °C 30.10in /  1019.2hPa West 3.0mph /  4.8km/h 5.0mph /  8km/h 73% 0.00in /  0mm
21:19 33.9 °F /  1.1 °C 26.2 °F /  -3.2 °C 30.10in /  1019.2hPa West 2.0mph /  3.2km/h 4.0mph /  6.4km/h 73% 0.00in /  0mm
21:24 33.8 °F /  1 °C 26.1 °F /  -3.3 °C 30.10in /  1019.2hPa West 2.0mph /  3.2km/h 4.0mph /  6.4km/h 73% 0.00in /  0mm
21:29 33.7 °F /  0.9 °C 26.0 °F /  -3.3 °C 30.10in /  1019.2hPa West 3.0mph /  4.8km/h 6.0mph /  9.7km/h 73% 0.00in /  0mm
21:34 33.6 °F /  0.9 °C 25.9 °F /  -3.4 °C 30.10in /  1019.2hPa West 1.0mph /  1.6km/h 6.0mph /  9.7km/h 73% 0.00in /  0mm
21:39 33.5 °F /  0.8 °C 25.4 °F /  -3.7 °C 30.10in /  1019.2hPa NW 4.0mph /  6.4km/h 6.0mph /  9.7km/h 72% 0.00in /  0mm
21:44 33.5 °F /  0.8 °C 25.4 °F /  -3.7 °C 30.09in /  1018.8hPa SW 2.0mph /  3.2km/h 4.0mph /  6.4km/h 72% 0.00in /  0mm
21:49 33.5 °F /  0.8 °C 25.4 °F /  -3.7 °C 30.09in /  1018.8hPa West 3.0mph /  4.8km/h 4.0mph /  6.4km/h 72% 0.00in /  0mm
21:54 33.4 °F /  0.8 °C 25.3 °F /  -3.7 °C 30.08in /  1018.5hPa Calm   3.0mph /  4.8km/h 72% 0.00in /  0mm
21:59 33.4 °F /  0.8 °C 25.7 °F /  -3.5 °C 30.08in /  1018.5hPa Calm   4.0mph /  6.4km/h 73% 0.00in /  0mm
22:04 33.3 °F /  0.7 °C 25.6 °F /  -3.6 °C 30.08in /  1018.5hPa WNW 1.0mph /  1.6km/h 4.0mph /  6.4km/h 73% 0.00in /  0mm
22:09 33.2 °F /  0.7 °C 25.5 °F /  -3.6 °C 30.08in /  1018.5hPa West 2.0mph /  3.2km/h 4.0mph /  6.4km/h 73% 0.00in /  0mm
22:14 33.2 °F /  0.7 °C 25.1 °F /  -3.8 °C 30.08in /  1018.5hPa West 2.0mph /  3.2km/h 4.0mph /  6.4km/h 72% 0.00in /  0mm
22:19 33.1 °F /  0.6 °C 25.1 °F /  -3.8 °C 30.08in /  1018.5hPa West 2.0mph /  3.2km/h 4.0mph /  6.4km/h 72% 0.00in /  0mm
22:24 33.0 °F /  0.6 °C 24.3 °F /  -4.3 °C 30.07in /  1018.2hPa West 2.0mph /  3.2km/h 4.0mph /  6.4km/h 70% 0.00in /  0mm
22:29 33.0 °F /  0.6 °C 23.9 °F /  -4.5 °C 30.07in /  1018.2hPa NW 2.0mph /  3.2km/h 4.0mph /  6.4km/h 69% 0.00in /  0mm
22:34 33.0 °F /  0.6 °C 23.2 °F /  -4.9 °C 30.07in /  1018.2hPa WNW 2.0mph /  3.2km/h 6.0mph /  9.7km/h 67% 0.00in /  0mm
22:39 33.0 °F /  0.6 °C 22.5 °F /  -5.3 °C 30.07in /  1018.2hPa WNW 2.0mph /  3.2km/h 6.0mph /  9.7km/h 65% 0.00in /  0mm
22:44 32.9 °F /  0.5 °C 21.3 °F /  -5.9 °C 30.06in /  1017.8hPa WNW 2.0mph /  3.2km/h 5.0mph /  8km/h 62% 0.00in /  0mm
22:49 33.0 °F /  0.6 °C 21.0 °F /  -6.1 °C 30.06in /  1017.8hPa WNW 3.0mph /  4.8km/h 6.0mph /  9.7km/h 61% 0.00in /  0mm
22:54 32.9 °F /  0.5 °C 20.9 °F /  -6.2 °C 30.06in /  1017.8hPa Calm   3.0mph /  4.8km/h 61% 0.00in /  0mm
22:59 33.0 °F /  0.6 °C 20.2 °F /  -6.6 °C 30.06in /  1017.8hPa WNW 2.0mph /  3.2km/h 2.0mph /  3.2km/h 59% 0.00in /  0mm
23:04 33.0 °F /  0.6 °C 19.8 °F /  -6.8 °C 30.06in /  1017.8hPa Calm   3.0mph /  4.8km/h 58% 0.00in /  0mm
23:09 32.8 °F /  0.4 °C 20.0 °F /  -6.7 °C 30.06in /  1017.8hPa NW 1.0mph /  1.6km/h 3.0mph /  4.8km/h 59% 0.00in /  0mm
23:14 32.7 °F /  0.4 °C 19.5 °F /  -6.9 °C 30.05in /  1017.5hPa WNW 1.0mph /  1.6km/h 3.0mph /  4.8km/h 58% 0.00in /  0mm
23:19 32.5 °F /  0.3 °C 19.7 °F /  -6.8 °C 30.05in /  1017.5hPa WNW 1.0mph /  1.6km/h 3.0mph /  4.8km/h 59% 0.00in /  0mm
23:24 32.5 °F /  0.3 °C 19.3 °F /  -7.1 °C 30.05in /  1017.5hPa Calm   2.0mph /  3.2km/h 58% 0.00in /  0mm
23:29 32.4 °F /  0.2 °C 19.7 °F /  -6.8 °C 30.05in /  1017.5hPa Calm   2.0mph /  3.2km/h 59% 0.00in /  0mm
23:34 32.5 °F /  0.3 °C 19.3 °F /  -7.1 °C 30.04in /  1017.2hPa WNW 1.0mph /  1.6km/h 2.0mph /  3.2km/h 58% 0.00in /  0mm
23:39 32.4 °F /  0.2 °C 19.3 °F /  -7.1 °C 30.04in /  1017.2hPa Calm   2.0mph /  3.2km/h 58% 0.00in /  0mm
23:44 32.2 °F /  0.1 °C 19.5 °F /  -6.9 °C 30.04in /  1017.2hPa Calm     59% 0.00in /  0mm
23:49 32.0 °F /  0 °C 19.7 °F /  -6.8 °C 30.04in /  1017.2hPa Calm     60% 0.00in /  0mm
23:54 32.0 °F /  0 °C 19.7 °F /  -6.8 °C 30.03in /  1016.8hPa Calm   1.0mph /  1.6km/h 60% 0.00in /  0mm
23:59 31.7 °F /  -0.2 °C 19.8 °F /  -6.8 °C 30.03in /  1016.8hPa Calm     61% 0.00in /  0mm
Buffalo, New York, USA
Compliments of Weather Underground - 2.5 mb